createdAt,value
2022-12-08T00:05:07.048Z,97768.20
2022-12-08T00:10:46.506Z,97774.08
2022-12-08T00:15:41.238Z,97772.41
2022-12-08T00:20:48.427Z,97772.75
2022-12-08T00:25:55.529Z,97770.32
2022-12-08T00:31:02.548Z,97777.77
2022-12-08T00:36:10.327Z,97783.67
2022-12-08T00:41:18.126Z,97784.05
2022-12-08T00:46:25.222Z,97785.79
2022-12-08T00:51:31.938Z,97793.54
2022-12-08T00:56:39.469Z,97799.02
2022-12-08T01:01:47.945Z,97808.65
2022-12-08T01:06:54.906Z,97812.80
2022-12-08T01:12:01.639Z,97816.56
2022-12-08T01:17:08.805Z,97815.64
2022-12-08T01:22:15.557Z,97819.25
2022-12-08T01:27:22.547Z,97828.19
2022-12-08T01:32:29.607Z,97821.45
2022-12-08T01:37:36.914Z,97824.20
2022-12-08T01:42:44.334Z,97822.66
2022-12-08T01:47:52.861Z,97820.77
2022-12-08T01:53:02.768Z,97813.88
2022-12-08T01:58:14.188Z,97809.34
2022-12-08T02:03:24.557Z,97807.92
2022-12-08T02:08:32.777Z,97809.59
2022-12-08T02:13:40.065Z,97802.16
2022-12-08T02:19:22.428Z,97808.02
2022-12-08T02:24:26.869Z,97810.12
2022-12-08T02:29:48.175Z,97807.08
2022-12-08T02:35:00.008Z,97809.49
2022-12-08T02:40:12.037Z,97803.34
2022-12-08T02:45:21.797Z,97800.77
2022-12-08T02:50:28.547Z,97798.80
2022-12-08T02:55:41.797Z,97798.34
2022-12-08T03:00:55.148Z,97804.21
2022-12-08T03:06:07.468Z,97811.42
2022-12-08T03:11:20.747Z,97811.52
2022-12-08T03:16:29.037Z,97810.35
2022-12-08T03:21:37.397Z,97806.13
2022-12-08T03:26:48.098Z,97802.80
2022-12-08T03:31:56.848Z,97802.88
2022-12-08T03:37:04.107Z,97799.36
2022-12-08T03:42:10.788Z,97800.06
2022-12-08T03:47:17.658Z,97799.60
2022-12-08T03:52:24.661Z,97797.96
2022-12-08T03:57:31.695Z,97799.63
2022-12-08T04:02:38.651Z,97799.63
2022-12-08T04:07:45.683Z,97800.25
2022-12-08T04:12:52.867Z,97800.96
2022-12-08T04:17:59.628Z,97800.43
2022-12-08T04:23:06.565Z,97797.54
2022-12-08T04:28:13.726Z,97792.85
2022-12-08T04:33:20.708Z,97797.70
2022-12-08T04:38:27.967Z,97794.81
2022-12-08T04:43:34.726Z,97789.09
2022-12-08T04:48:42.641Z,97780.82
2022-12-08T04:53:50.346Z,97784.75
2022-12-08T04:58:57.630Z,97782.71
2022-12-08T05:04:04.868Z,97787.72
2022-12-08T05:09:11.999Z,97790.56
2022-12-08T05:14:20.367Z,97790.16
2022-12-08T05:19:27.337Z,97787.36
2022-12-08T05:24:34.367Z,97785.95
2022-12-08T05:29:41.238Z,97782.59
2022-12-08T05:34:48.337Z,97784.71
2022-12-08T05:39:55.235Z,97783.31
2022-12-08T05:45:02.317Z,97787.08
2022-12-08T05:50:10.117Z,97783.47
2022-12-08T05:55:17.107Z,97785.29
2022-12-08T06:00:24.680Z,97786.00
2022-12-08T06:05:31.777Z,97798.75
2022-12-08T06:10:39.477Z,97801.89
2022-12-08T06:15:46.427Z,97798.62
2022-12-08T06:20:53.388Z,97802.29
2022-12-08T06:26:04.319Z,97803.16
2022-12-08T06:31:12.831Z,97812.80
2022-12-08T06:36:21.908Z,97816.63
2022-12-08T06:41:29.246Z,97827.45
2022-12-08T06:46:36.627Z,97833.40
2022-12-08T06:51:43.838Z,97845.30
2022-12-08T06:56:50.997Z,97845.52
2022-12-08T07:01:59.036Z,97840.90
2022-12-08T07:07:06.240Z,97839.36
2022-12-08T07:12:13.247Z,97842.17
2022-12-08T07:17:20.257Z,97839.13
2022-12-08T07:22:27.118Z,97843.73
2022-12-08T07:27:34.128Z,97839.45
2022-12-08T07:32:41.170Z,97834.84
2022-12-08T07:37:48.458Z,97842.98
2022-12-08T07:42:55.290Z,97842.35
2022-12-08T07:48:02.157Z,97839.70
2022-12-08T07:53:09.208Z,97841.89
2022-12-08T07:58:16.278Z,97837.91
2022-12-08T08:03:23.797Z,97838.45
2022-12-08T08:08:30.837Z,97841.66
2022-12-08T08:13:37.898Z,97841.59
2022-12-08T08:18:45.648Z,97843.23
2022-12-08T08:23:52.728Z,97840.11
2022-12-08T08:29:00.168Z,97838.77
2022-12-08T08:34:07.348Z,97836.82
2022-12-08T08:39:15.317Z,97830.64
2022-12-08T08:44:22.660Z,97831.42
2022-12-08T08:49:30.149Z,97835.64
2022-12-08T08:54:37.347Z,97830.64
2022-12-08T08:59:44.326Z,97831.66
2022-12-08T09:04:51.471Z,97829.55
2022-12-08T09:10:01.825Z,97827.68
2022-12-08T09:15:10.208Z,97825.80
2022-12-08T09:20:17.148Z,97822.69
2022-12-08T09:25:24.198Z,97819.95
2022-12-08T09:30:31.238Z,97814.23
2022-12-08T09:35:38.318Z,97805.56
2022-12-08T09:40:51.772Z,97802.58
2022-12-08T09:45:58.699Z,97796.02
2022-12-08T09:51:05.780Z,97783.65
2022-12-08T09:56:15.128Z,97785.84
2022-12-08T10:01:23.020Z,97780.67
2022-12-08T10:06:34.728Z,97781.54
2022-12-08T10:11:46.086Z,97782.80
2022-12-08T10:16:56.986Z,97774.28
2022-12-08T10:22:07.791Z,97775.45
2022-12-08T10:27:15.092Z,97764.80
2022-12-08T10:32:23.170Z,97761.67
2022-12-08T10:37:30.337Z,97755.88
2022-12-08T10:42:39.548Z,97743.45
2022-12-08T10:47:57.398Z,97748.06
2022-12-08T10:53:12.918Z,97745.33
2022-12-08T10:58:30.467Z,97741.10
2022-12-08T11:03:40.867Z,97737.37
2022-12-08T11:08:55.987Z,97739.23
2022-12-08T11:14:08.787Z,97739.10
2022-12-08T11:19:18.277Z,97741.36
2022-12-08T11:24:26.597Z,97745.37
2022-12-08T11:29:34.897Z,97742.24
2022-12-08T11:34:44.148Z,97743.27
2022-12-08T11:39:52.515Z,97744.52
2022-12-08T11:45:00.732Z,97742.50
2022-12-08T11:50:19.881Z,97740.23
2022-12-08T11:55:37.105Z,97733.27
2022-12-08T12:00:46.898Z,97737.02
2022-12-08T12:06:13.673Z,97737.59
2022-12-08T12:11:52.347Z,97739.91
2022-12-08T12:17:13.088Z,97733.77
2022-12-08T12:22:23.623Z,97731.26
2022-12-08T12:27:34.058Z,97727.74
2022-12-08T12:32:46.998Z,97728.02
2022-12-08T12:37:58.687Z,97731.06
2022-12-08T12:43:27.397Z,97726.67
2022-12-08T12:48:34.415Z,97720.66
2022-12-08T12:53:51.711Z,97714.10
2022-12-08T12:58:58.837Z,97715.28
2022-12-08T13:04:07.824Z,97715.77
2022-12-08T13:09:23.438Z,97720.76
2022-12-08T13:14:31.879Z,97725.14
2022-12-08T13:19:40.458Z,97725.23
2022-12-08T13:24:47.748Z,97718.59
2022-12-08T13:30:22.972Z,97718.77
2022-12-08T13:35:29.725Z,97715.06
2022-12-08T13:40:39.517Z,97710.70
2022-12-08T13:53:15.845Z,97725.24
2022-12-08T13:57:06.733Z,97725.09
2022-12-08T14:02:19.045Z,97725.34
2022-12-08T14:07:26.446Z,97724.95
2022-12-08T14:12:33.527Z,97726.23
2022-12-08T14:17:41.395Z,97723.80
2022-12-08T14:22:48.385Z,97723.66
2022-12-08T14:27:58.768Z,97725.91
2022-12-08T14:33:06.248Z,97727.64
2022-12-08T14:38:15.570Z,97729.89
2022-12-08T14:43:22.818Z,97732.02
2022-12-08T14:48:42.530Z,97732.96
2022-12-08T14:53:54.049Z,97735.23
2022-12-08T14:59:10.128Z,97736.95
2022-12-08T15:04:20.675Z,97734.52
2022-12-08T15:09:37.587Z,97733.14
2022-12-08T15:14:45.858Z,97733.04
2022-12-08T15:19:59.138Z,97727.59
2022-12-08T15:25:07.478Z,97728.12
2022-12-08T15:30:16.994Z,97719.70
2022-12-08T15:35:24.308Z,97719.47
2022-12-08T15:40:31.367Z,97719.55
2022-12-08T15:45:38.088Z,97721.66
2022-12-08T15:50:45.178Z,97713.70
2022-12-08T15:56:25.649Z,97711.20
2022-12-08T16:53:26.795Z,97692.75
2022-12-08T16:58:34.167Z,97692.91
2022-12-08T17:03:41.402Z,97693.48
2022-12-08T17:08:48.515Z,97690.15
2022-12-08T17:13:55.715Z,97683.04
2022-12-08T17:19:02.917Z,97686.41
2022-12-08T17:24:10.415Z,97688.98
2022-12-08T17:29:19.325Z,97689.46
2022-12-08T17:34:26.085Z,97689.45
2022-12-08T17:39:33.097Z,97695.00
2022-12-08T17:44:40.016Z,97692.50
2022-12-08T17:49:47.048Z,97685.70
2022-12-08T17:54:54.012Z,97689.23
2022-12-08T18:00:00.996Z,97686.26
2022-12-08T18:05:08.977Z,97684.61
2022-12-08T18:10:16.367Z,97679.00
2022-12-08T18:15:23.580Z,97672.21
2022-12-08T18:20:30.926Z,97670.49
2022-12-08T18:25:38.015Z,97667.20
2022-12-08T18:30:44.864Z,97663.62
2022-12-08T18:35:51.976Z,97658.77
2022-12-08T18:41:05.886Z,97658.38
2022-12-08T18:46:14.078Z,97649.86
2022-12-08T18:51:22.045Z,97652.29
2022-12-08T18:56:30.175Z,97648.85
2022-12-08T19:01:38.106Z,97648.69
2022-12-08T19:06:45.886Z,97651.43
2022-12-08T19:11:52.776Z,97650.73
2022-12-08T19:17:00.013Z,97652.98
2022-12-08T19:22:07.289Z,97654.49
2022-12-08T19:27:14.198Z,97652.63
2022-12-08T19:32:20.904Z,97655.84
2022-12-08T19:37:27.701Z,97658.17
2022-12-08T19:42:52.047Z,97655.42
2022-12-08T19:47:59.456Z,97658.41
2022-12-08T19:53:06.859Z,97661.38
2022-12-08T19:58:14.057Z,97653.10
2022-12-08T20:03:22.049Z,97649.28
2022-12-08T20:08:29.383Z,97641.61
2022-12-08T20:13:48.253Z,97643.19
2022-12-08T20:18:55.320Z,97647.55
2022-12-08T20:24:02.195Z,97647.58
2022-12-08T20:29:08.975Z,97648.59
2022-12-08T20:34:18.025Z,97645.23
2022-12-08T20:39:25.356Z,97640.71
2022-12-08T20:44:32.344Z,97642.74
2022-12-08T20:49:40.003Z,97643.84
2022-12-08T20:54:47.065Z,97644.86
2022-12-08T20:59:54.219Z,97648.05
2022-12-08T21:05:01.340Z,97645.56
2022-12-08T21:10:09.923Z,97644.55
2022-12-08T21:15:17.290Z,97646.73
2022-12-08T21:20:24.269Z,97639.41
2022-12-08T21:25:31.216Z,97640.27
2022-12-08T21:30:38.280Z,97640.66
2022-12-08T21:35:45.222Z,97639.64
2022-12-08T21:40:51.920Z,97640.11
2022-12-08T21:45:58.970Z,97644.33
2022-12-08T21:51:07.064Z,97636.29
2022-12-08T21:56:14.292Z,97626.45
2022-12-08T22:01:21.778Z,97624.42
2022-12-08T22:06:29.125Z,97622.48
2022-12-08T22:11:36.125Z,97620.67
2022-12-08T22:16:43.981Z,97625.05
2022-12-08T22:21:51.392Z,97621.45
2022-12-08T22:26:58.759Z,97618.11
2022-12-08T22:32:06.495Z,97618.97
2022-12-08T22:37:13.826Z,97618.73
2022-12-08T22:42:21.130Z,97613.83
2022-12-08T22:47:28.451Z,97612.89
2022-12-08T22:52:35.656Z,97613.83
2022-12-08T22:57:43.144Z,97615.55
2022-12-08T23:02:50.813Z,97616.25
2022-12-08T23:07:58.165Z,97619.62
2022-12-08T23:13:05.206Z,97615.09
2022-12-08T23:18:15.174Z,97612.90
2022-12-08T23:23:22.338Z,97608.06
2022-12-08T23:28:29.308Z,97604.55
2022-12-08T23:33:36.743Z,97606.67
2022-12-08T23:38:43.821Z,97602.60
2022-12-08T23:43:51.507Z,97598.46
2022-12-08T23:48:58.746Z,97594.56
2022-12-08T23:54:07.087Z,97598.70
2022-12-08T23:59:14.182Z,97601.69
